首页
METAR-TAF:

METAR-TAF

机场 :

喬治皇子城機場

乔治王子城, 不列颠哥伦比亚, 加拿大

纬度: 53-53N, 经度: 122-41W, 海拔: 691米

当前天气观测

该预报发布于41分钟前的13:00 UTC
风速2节,风向
温度 3°C
湿度 93%
气压 1016 hPa
能見度: 14.5公里
天空无云

METAR: CYXS 221300Z AUTO 18002KT 9SM CLR 03/02 A2999 RMK SLP169

时间: 06:41 (13:41 UTC)

预报

该预报发布于1小时和3分钟前的12:38 UTC
预报有效从22日的 13点(UTC)到 23日的 01点(UTC)
风速3节,风向多变
能見度: 10公里
少量云层高于12000英尺
从 22日的 2100点(UTC)
风速5节,风向
能見度: 10公里
散云层高于6000英尺
短暂存在
从 22日的 21点(UTC)到 23日的 01点(UTC)
能見度: 10公里
多云层高于6000英尺
小阵雨
几率 30%
从 22日的 21点(UTC)到 23日的 01点(UTC)
能見度: 10公里
阴天层高于5000英尺, 积雨云.
附近有雷暴

TAF: CYXS 221238Z 2213/2301 VRB03KT P6SM FEW120 FM222100 36005KT P6SM SCT060 TEMPO 2221/2301 P6SM -SHRA BKN060 PROB30 2221/2301 P6SM VCTS OVC050CB RMK FCST BASED ON AUTO OBS. NXT FCST BY 221900Z

超过4000个机场的气象观测和天气预报(METAR&TAF报告)。

可查询的气象台以黄色和红色小点在地图上表示。

将鼠标移到小点上方,可查看气象台名称。

然后点击查看天气观测和预报。

如需切换地图:点击带黑十字的绿色按钮放大地图;点击带横线的绿色按钮缩小地图;或者点击绿色箭头查看邻近地区的地图。


METAR-TAF: